Time;durP1;ratioP1;P1;durP2;ratioP2;P2;SDS_P1;SDS_P2;PMS_P1;PMS_P2;Temp;Humidity;BMP_temperature;BMP_pressure;BME280_temperature;BME280_humidity;BME280_pressure;Samples;Min_cycle;Max_cycle;Signal;HPM_P1;HPM_P2
2023/05/08 00:00:18;;;;;;;5.97;5.40;;;;;;;15.39;65.29;95203.91;4978320;28;20311;-61
2023/05/08 00:02:45;;;;;;;5.78;5.38;;;;;;;15.35;65.63;95201.56;4975192;28;21903;-66
2023/05/08 00:05:12;;;;;;;5.43;5.03;;;;;;;15.37;65.72;95205.72;4979281;28;20488;-63
2023/05/08 00:07:38;;;;;;;7.72;5.78;;;;;;;15.14;66.47;95209.41;4978929;28;20812;-63
2023/05/08 00:10:06;;;;;;;5.90;5.50;;;;;;;14.93;67.25;95198.50;4980115;28;20674;-65
2023/05/08 00:12:33;;;;;;;5.85;5.40;;;;;;;15.00;66.72;95205.88;4981340;28;20264;-64
2023/05/08 00:15:02;;;;;;;6.60;5.82;;;;;;;15.01;66.72;95207.53;4981799;28;21535;-61
2023/05/08 00:17:28;;;;;;;6.68;6.07;;;;;;;15.06;66.52;95205.59;4984828;28;20218;-66
2023/05/08 00:19:55;;;;;;;5.55;3.97;;;;;;;15.11;66.31;95208.72;4984366;28;20195;-62
2023/05/08 00:22:22;;;;;;;7.13;4.90;;;;;;;15.06;65.81;95191.06;4984424;28;22353;-62
2023/05/08 00:24:49;;;;;;;7.13;6.05;;;;;;;14.98;66.40;95206.78;4984078;28;20326;-61
2023/05/08 00:27:15;;;;;;;7.05;5.85;;;;;;;14.92;66.95;95214.75;4983275;28;20787;-61
2023/05/08 00:29:42;;;;;;;7.25;6.05;;;;;;;14.90;67.20;95229.34;4983145;28;20216;-64
2023/05/08 00:32:10;;;;;;;6.13;5.70;;;;;;;14.88;67.30;95227.75;4981595;28;20302;-61
2023/05/08 00:34:37;;;;;;;6.03;5.30;;;;;;;14.60;68.12;95228.22;4985089;28;20747;-66
2023/05/08 00:37:03;;;;;;;5.47;4.93;;;;;;;14.59;68.62;95217.19;4983956;28;20287;-62
2023/05/08 00:39:30;;;;;;;5.32;4.90;;;;;;;14.61;68.31;95219.66;4986217;28;20298;-64
2023/05/08 00:41:57;;;;;;;5.03;4.15;;;;;;;14.70;67.31;95224.34;4978702;28;20289;-62
2023/05/08 00:44:24;;;;;;;5.45;5.05;;;;;;;14.69;67.61;95217.56;4983308;28;20302;-62
2023/05/08 00:46:50;;;;;;;7.68;5.53;;;;;;;14.57;68.30;95224.09;4984022;28;20353;-69
2023/05/08 00:49:19;;;;;;;10.30;5.35;;;;;;;14.54;68.08;95224.25;4981978;28;20342;-63
2023/05/08 00:51:48;;;;;;;7.00;5.47;;;;;;;14.56;68.29;95221.63;4980452;28;20739;-61
2023/05/08 00:54:15;;;;;;;6.85;5.65;;;;;;;14.50;68.95;95232.13;4983318;28;21591;-64
2023/05/08 00:56:43;;;;;;;9.40;5.22;;;;;;;14.35;69.87;95228.53;4981964;28;20303;-63
2023/05/08 00:59:13;;;;;;;7.57;5.20;;;;;;;14.19;70.83;95230.91;4984211;28;20337;-63
2023/05/08 01:01:41;;;;;;;5.82;5.28;;;;;;;14.15;71.37;95237.06;4986348;28;20301;-62
2023/05/08 01:04:08;;;;;;;5.25;4.85;;;;;;;14.09;71.47;95234.81;4984219;28;20314;-61
2023/05/08 01:06:36;;;;;;;10.48;5.85;;;;;;;14.04;71.41;95231.63;4983822;28;20739;-62
2023/05/08 01:09:04;;;;;;;6.57;5.97;;;;;;;14.00;71.66;95235.19;4985632;28;20600;-63
2023/05/08 01:11:37;;;;;;;5.57;5.15;;;;;;;14.01;71.59;95233.47;4982555;28;20216;-64
2023/05/08 01:14:12;;;;;;;6.00;5.53;;;;;;;13.92;71.90;95234.69;4984434;28;20252;-63
2023/05/08 01:16:43;;;;;;;5.82;5.10;;;;;;;13.92;72.23;95235.53;4985355;28;20208;-63
2023/05/08 01:19:49;;;;;;;6.30;5.63;;;;;;;13.90;72.37;95242.44;4985911;28;20364;-63
2023/05/08 01:22:31;;;;;;;10.98;5.72;;;;;;;13.77;73.22;95240.47;4978868;28;20523;-62
2023/05/08 01:25:30;;;;;;;8.65;5.80;;;;;;;13.69;73.73;95240.81;4981187;28;20468;-62
2023/05/08 01:28:13;;;;;;;6.70;6.10;;;;;;;13.78;73.30;95242.13;4939198;28;20342;-61
2023/05/08 01:30:55;;;;;;;7.22;5.97;;;;;;;13.87;73.22;95231.50;4981053;28;20212;-62
2023/05/08 01:33:28;;;;;;;6.15;5.55;;;;;;;13.86;72.92;95229.84;4986053;28;20294;-61
2023/05/08 01:36:03;;;;;;;8.77;5.43;;;;;;;13.80;73.69;95235.25;4984067;28;20247;-61
2023/05/08 01:38:33;;;;;;;6.10;5.70;;;;;;;13.91;72.53;95233.03;4985587;28;20222;-61
2023/05/08 01:41:07;;;;;;;9.40;5.82;;;;;;;13.87;72.69;95231.50;4984808;28;20207;-62
2023/05/08 01:43:43;;;;;;;7.30;6.60;;;;;;;13.79;73.03;95231.03;4984720;28;20203;-63
2023/05/08 01:46:14;;;;;;;6.72;6.22;;;;;;;13.77;73.05;95227.72;4982771;28;20811;-62
2023/05/08 01:48:49;;;;;;;8.40;6.32;;;;;;;13.72;72.72;95221.97;4983264;28;20297;-62
2023/05/08 01:51:20;;;;;;;7.82;7.13;;;;;;;13.81;72.82;95216.47;4983708;28;20227;-64
2023/05/08 01:53:51;;;;;;;8.40;5.78;;;;;;;13.84;72.92;95221.44;4984030;28;20326;-62
2023/05/08 01:56:22;;;;;;;6.35;5.85;;;;;;;13.73;73.05;95223.63;4983783;28;20604;-64
2023/05/08 01:58:51;;;;;;;6.78;6.18;;;;;;;13.68;73.36;95223.81;4984093;28;22551;-61
2023/05/08 02:01:22;;;;;;;8.73;5.65;;;;;;;13.72;73.47;95232.19;4984295;28;20245;-61
2023/05/08 02:03:53;;;;;;;6.43;5.93;;;;;;;13.78;72.90;95221.72;4985046;28;20306;-63
2023/05/08 02:06:22;;;;;;;8.32;7.07;;;;;;;13.77;72.89;95230.25;4981859;28;20310;-64
2023/05/08 02:08:50;;;;;;;8.38;6.85;;;;;;;13.68;72.90;95228.09;4982695;28;20290;-64
2023/05/08 02:11:18;;;;;;;10.35;5.97;;;;;;;13.61;73.54;95224.97;4984547;28;20309;-62
2023/05/08 02:13:47;;;;;;;7.20;6.53;;;;;;;13.65;72.83;95223.13;4984306;28;20326;-62
2023/05/08 02:16:16;;;;;;;8.38;7.10;;;;;;;13.68;73.28;95230.66;4983045;28;21077;-62
2023/05/08 02:18:48;;;;;;;8.00;6.90;;;;;;;13.55;73.72;95230.34;4983653;28;20309;-64
2023/05/08 02:21:21;;;;;;;8.63;6.13;;;;;;;13.68;73.26;95230.66;4983386;28;20298;-63
2023/05/08 02:23:48;;;;;;;6.10;5.70;;;;;;;13.69;73.20;95227.19;4981078;28;20268;-63
2023/05/08 02:26:16;;;;;;;8.50;6.47;;;;;;;13.67;72.75;95231.53;4982446;28;20231;-63
2023/05/08 02:28:43;;;;;;;8.05;7.20;;;;;;;13.72;72.58;95235.56;4982617;28;20302;-61
2023/05/08 02:31:12;;;;;;;7.20;6.60;;;;;;;13.79;72.63;95220.81;4982001;28;20298;-60
2023/05/08 02:33:41;;;;;;;8.93;7.90;;;;;;;13.79;72.16;95218.25;4978059;28;20222;-62
2023/05/08 02:36:10;;;;;;;8.38;7.57;;;;;;;13.93;71.81;95232.06;4983708;28;20330;-60
2023/05/08 02:38:41;;;;;;;7.47;6.38;;;;;;;13.96;71.34;95237.06;4986504;28;20591;-64
2023/05/08 02:41:10;;;;;;;12.55;7.30;;;;;;;13.96;71.77;95231.13;4978231;28;20578;-62
2023/05/08 02:43:37;;;;;;;7.82;7.15;;;;;;;13.97;71.43;95237.88;4984607;28;23168;-63
2023/05/08 02:46:12;;;;;;;6.90;6.30;;;;;;;13.78;72.20;95237.03;4985034;28;20208;-62
2023/05/08 02:48:47;;;;;;;7.68;6.85;;;;;;;13.79;72.06;95248.91;4981524;28;20199;-63
2023/05/08 02:51:21;;;;;;;10.00;6.60;;;;;;;13.76;72.02;95241.38;4982523;28;20292;-63
2023/05/08 02:53:55;;;;;;;6.80;6.10;;;;;;;13.76;72.29;95243.94;4980907;28;20208;-65
2023/05/08 02:56:31;;;;;;;6.90;6.22;;;;;;;13.76;72.51;95246.47;4982102;28;20207;-62
2023/05/08 02:59:03;;;;;;;10.85;7.75;;;;;;;13.73;72.54;95244.06;4982364;28;20202;-60
2023/05/08 03:01:37;;;;;;;11.55;7.43;;;;;;;13.78;72.08;95235.31;4984537;28;22248;-64
2023/05/08 03:04:07;;;;;;;7.95;6.28;;;;;;;13.73;72.40;95244.88;4984337;28;20188;-63
2023/05/08 03:06:38;;;;;;;10.10;6.45;;;;;;;13.74;72.44;95245.72;4981215;28;20216;-63
2023/05/08 03:09:12;;;;;;;6.65;6.07;;;;;;;13.73;72.85;95255.09;4983097;28;20287;-64
2023/05/08 03:11:42;;;;;;;11.43;6.72;;;;;;;13.74;72.64;95245.72;4983969;28;21356;-63
2023/05/08 03:14:13;;;;;;;8.98;6.10;;;;;;;13.74;72.55;95240.59;4983656;28;20295;-64
2023/05/08 03:16:42;;;;;;;7.57;6.75;;;;;;;13.74;72.75;95246.56;4983246;28;20338;-62
2023/05/08 03:19:17;;;;;;;7.15;6.25;;;;;;;13.79;72.54;95246.34;4983714;28;20302;-63
2023/05/08 03:21:46;;;;;;;9.70;5.28;;;;;;;13.87;72.02;95246.84;4982707;28;20427;-63
2023/05/08 03:24:17;;;;;;;6.57;6.00;;;;;;;13.84;72.08;95250.38;4981794;28;20211;-64
2023/05/08 03:26:44;;;;;;;8.20;7.32;;;;;;;13.78;72.39;95239.59;4981124;28;20322;-63
2023/05/08 03:29:13;;;;;;;6.90;5.68;;;;;;;13.92;71.95;95243.19;4983614;28;20306;-63
2023/05/08 03:31:42;;;;;;;8.73;6.40;;;;;;;14.07;71.38;95246.81;4981633;28;20419;-62
2023/05/08 03:34:12;;;;;;;9.38;5.97;;;;;;;14.18;71.10;95257.38;4984340;28;20295;-66
2023/05/08 03:36:39;;;;;;;13.02;6.80;;;;;;;14.28;70.92;95258.63;4984702;28;20281;-65
2023/05/08 03:39:06;;;;;;;6.55;5.72;;;;;;;14.34;70.59;95256.72;4984066;28;20264;-61
2023/05/08 03:41:34;;;;;;;9.27;6.82;;;;;;;14.47;70.36;95252.72;4981563;28;20203;-62
2023/05/08 03:44:03;;;;;;;6.20;5.75;;;;;;;14.73;69.35;95259.19;4983563;28;20211;-63
2023/05/08 03:46:31;;;;;;;11.80;5.88;;;;;;;15.05;68.38;95247.44;4987214;28;21963;-65
2023/05/08 03:49:00;;;;;;;8.27;5.95;;;;;;;15.26;67.53;95249.78;4986198;28;20339;-63
2023/05/08 03:51:27;;;;;;;6.85;6.25;;;;;;;15.43;66.45;95246.38;4989568;28;20218;-64
2023/05/08 03:53:54;;;;;;;8.68;5.65;;;;;;;15.48;65.94;95249.56;4985823;28;20223;-62
2023/05/08 03:56:21;;;;;;;6.45;5.82;;;;;;;15.51;66.08;95257.09;4986424;28;20358;-63
2023/05/08 03:58:54;;;;;;;6.30;5.70;;;;;;;15.48;66.09;95262.34;4984289;28;20287;-62
2023/05/08 04:01:25;;;;;;;6.55;6.05;;;;;;;15.65;66.09;95257.25;4985856;28;20333;-65
2023/05/08 04:03:59;;;;;;;17.30;5.97;;;;;;;16.13;64.56;95263.34;4987260;28;20330;-62
2023/05/08 04:06:30;;;;;;;10.00;5.68;;;;;;;16.76;62.76;95260.88;4984836;28;21988;-63
2023/05/08 04:09:05;;;;;;;7.70;5.57;;;;;;;17.38;60.67;95261.66;4986496;28;20207;-65
2023/05/08 04:11:38;;;;;;;8.95;5.75;;;;;;;17.87;59.57;95259.66;4985556;28;20294;-62
2023/05/08 04:14:11;;;;;;;7.78;5.97;;;;;;;18.32;57.85;95256.09;4987846;28;20333;-63
2023/05/08 04:16:39;;;;;;;5.38;4.88;;;;;;;18.66;56.26;95257.47;4985369;28;20208;-63
2023/05/08 04:19:10;;;;;;;8.65;5.18;;;;;;;18.74;55.39;95262.13;4986272;28;20677;-66
2023/05/08 04:21:41;;;;;;;9.40;5.80;;;;;;;18.67;55.29;95266.84;4987319;28;20302;-64
2023/05/08 04:24:10;;;;;;;7.60;5.22;;;;;;;18.64;55.44;95261.03;4984921;28;20304;-64
2023/05/08 04:26:38;;;;;;;8.63;5.47;;;;;;;18.73;55.64;95275.09;4985842;28;20208;-64
2023/05/08 04:29:07;;;;;;;5.50;5.00;;;;;;;18.58;55.43;95267.34;4986543;28;20310;-66
2023/05/08 04:31:35;;;;;;;6.13;5.20;;;;;;;18.23;56.07;95254.09;4986471;28;20227;-66
2023/05/08 04:34:02;;;;;;;5.88;5.38;;;;;;;18.13;56.62;95273.56;4986954;28;20784;-65
2023/05/08 04:36:32;;;;;;;7.30;5.40;;;;;;;17.98;56.96;95267.59;4986723;28;20295;-64
2023/05/08 04:38:59;;;;;;;6.03;5.10;;;;;;;17.96;57.05;95263.44;4986072;28;20207;-65
2023/05/08 04:41:26;;;;;;;6.25;5.75;;;;;;;17.99;57.54;95263.28;4985683;28;20299;-66
2023/05/08 04:43:54;;;;;;;7.55;5.78;;;;;;;18.18;57.26;95258.69;4987815;28;20701;-66
2023/05/08 04:46:23;;;;;;;5.88;5.30;;;;;;;18.45;56.49;95265.66;4987044;28;20712;-65
2023/05/08 04:48:50;;;;;;;8.43;5.55;;;;;;;18.73;55.56;95259.66;4986228;28;20234;-65
2023/05/08 04:51:16;;;;;;;11.00;6.05;;;;;;;19.09;54.77;95261.66;4984422;28;20266;-69
2023/05/08 04:53:43;;;;;;;10.65;6.18;;;;;;;19.57;53.73;95255.94;4986655;28;20331;-67
2023/05/08 04:56:09;;;;;;;7.57;6.88;;;;;;;19.96;52.63;95256.78;4987299;28;20294;-67
2023/05/08 04:58:36;;;;;;;8.70;7.00;;;;;;;20.17;51.22;95250.19;4984989;28;20291;-65
2023/05/08 05:01:03;;;;;;;11.18;8.25;;;;;;;20.26;50.67;95252.16;4984146;28;20664;-65
2023/05/08 05:03:31;;;;;;;10.77;7.13;;;;;;;20.38;50.72;95248.72;4985509;28;20683;-65
2023/05/08 05:05:58;;;;;;;9.65;7.03;;;;;;;20.64;50.19;95240.94;4984883;28;20236;-64
2023/05/08 05:08:25;;;;;;;8.63;6.85;;;;;;;20.86;49.42;95247.97;4984251;28;20227;-65
2023/05/08 05:10:52;;;;;;;7.50;6.75;;;;;;;21.03;48.76;95248.41;4983991;28;20203;-65
2023/05/08 05:13:19;;;;;;;9.23;6.50;;;;;;;21.18;48.20;95237.94;4984838;28;20199;-66
2023/05/08 05:15:46;;;;;;;6.75;5.22;;;;;;;21.20;47.71;95251.56;4985809;28;20206;-63
2023/05/08 05:18:12;;;;;;;8.27;5.78;;;;;;;21.04;47.91;95239.75;4984530;28;20315;-65
2023/05/08 05:20:40;;;;;;;6.35;5.85;;;;;;;20.99;48.24;95236.69;4987313;28;21771;-64
2023/05/08 05:23:07;;;;;;;6.72;5.43;;;;;;;21.15;47.31;95235.56;4983738;28;20277;-65
2023/05/08 05:25:34;;;;;;;5.50;5.10;;;;;;;21.75;45.89;95240.63;4987333;28;20294;-68
2023/05/08 05:28:02;;;;;;;6.50;5.63;;;;;;;22.24;44.69;95235.19;4985000;28;20322;-64
2023/05/08 05:30:28;;;;;;;6.82;5.03;;;;;;;22.28;44.68;95233.97;4986569;28;20203;-67
2023/05/08 05:32:55;;;;;;;6.70;5.22;;;;;;;22.23;44.76;95245.66;4985632;28;20299;-67
2023/05/08 05:35:21;;;;;;;5.90;4.95;;;;;;;22.31;44.32;95233.75;4983369;28;20317;-64
2023/05/08 05:37:50;;;;;;;11.07;4.40;;;;;;;22.55;43.60;95235.38;4984799;28;20322;-67
2023/05/08 05:40:17;;;;;;;6.20;5.63;;;;;;;22.79;42.80;95238.66;4984441;28;20208;-62
2023/05/08 05:42:49;;;;;;;6.93;4.43;;;;;;;23.17;41.69;95239.97;4983577;28;20677;-64
2023/05/08 05:45:15;;;;;;;5.03;4.55;;;;;;;23.62;40.72;95238.88;4985254;28;20215;-69
2023/05/08 05:47:48;;;;;;;7.65;5.43;;;;;;;24.32;39.40;95238.19;4986347;28;20314;-64
2023/05/08 05:50:15;;;;;;;8.07;5.00;;;;;;;25.24;37.92;95238.03;4984698;28;20728;-65
2023/05/08 05:52:42;;;;;;;6.10;5.43;;;;;;;26.35;35.92;95233.09;4983663;28;20306;-63
2023/05/08 05:55:10;;;;;;;6.05;5.45;;;;;;;27.91;32.82;95229.34;4984402;28;20328;-66
2023/05/08 05:57:37;;;;;;;6.90;5.18;;;;;;;29.89;29.57;95219.19;4985016;28;20223;-67
2023/05/08 06:00:07;;;;;;;6.25;5.15;;;;;;;31.36;27.67;95215.88;4983755;28;20321;-66
2023/05/08 06:02:35;;;;;;;4.70;4.30;;;;;;;32.01;26.15;95204.84;4982648;28;21186;-67
2023/05/08 06:05:03;;;;;;;4.78;4.35;;;;;;;32.32;25.57;95209.97;4985673;28;20291;-67
2023/05/08 06:07:29;;;;;;;4.60;4.30;;;;;;;32.34;25.38;95204.53;4982476;28;20200;-66
2023/05/08 06:09:56;;;;;;;4.70;4.20;;;;;;;31.67;25.99;95197.44;4984164;28;20755;-65
2023/05/08 06:12:24;;;;;;;5.13;4.03;;;;;;;30.98;26.93;95195.72;4986597;28;20839;-65
2023/05/08 06:14:51;;;;;;;5.13;4.60;;;;;;;30.87;27.53;95202.22;4983974;28;20204;-69
2023/05/08 06:17:18;;;;;;;4.10;3.80;;;;;;;31.11;26.95;95196.84;4984715;28;20203;-66
2023/05/08 06:19:49;;;;;;;5.18;4.40;;;;;;;30.63;27.70;95197.09;4983437;28;20203;-65
2023/05/08 06:22:15;;;;;;;4.80;4.40;;;;;;;29.58;28.35;95206.75;4981891;28;20208;-65
2023/05/08 06:24:42;;;;;;;9.45;4.68;;;;;;;29.29;29.46;95203.78;4982207;28;20307;-64
2023/05/08 06:27:09;;;;;;;4.93;4.22;;;;;;;30.04;28.69;95191.34;4983888;28;20209;-67
2023/05/08 06:29:37;;;;;;;12.35;4.75;;;;;;;29.97;28.30;95191.16;4983107;28;20231;-65
2023/05/08 06:32:04;;;;;;;5.45;4.88;;;;;;;29.03;29.98;95196.88;4983698;28;20877;-64
2023/05/08 06:34:31;;;;;;;6.40;5.40;;;;;;;28.38;30.64;95203.66;4983002;28;20991;-65
2023/05/08 06:36:57;;;;;;;10.68;5.20;;;;;;;28.16;31.35;95207.63;4981907;28;20219;-68
2023/05/08 06:39:24;;;;;;;11.88;5.80;;;;;;;29.53;29.19;95197.75;4982385;28;21622;-65
2023/05/08 06:41:51;;;;;;;6.90;5.38;;;;;;;30.84;27.62;95197.31;4983244;28;20318;-69
2023/05/08 06:44:17;;;;;;;12.27;5.18;;;;;;;32.02;26.29;95205.66;4986644;28;20207;-68
2023/05/08 06:46:45;;;;;;;4.63;4.32;;;;;;;34.09;24.00;95201.56;4983673;28;20664;-65
2023/05/08 06:49:12;;;;;;;5.53;4.45;;;;;;;35.46;22.13;95194.47;4984651;28;20255;-63
2023/05/08 06:51:39;;;;;;;4.95;4.47;;;;;;;35.46;21.76;95191.81;4982800;28;20812;-63
2023/05/08 06:54:07;;;;;;;7.07;4.82;;;;;;;34.45;22.61;95194.28;4982155;28;20212;-65
2023/05/08 06:56:34;;;;;;;5.90;4.50;;;;;;;34.18;23.48;95189.81;4984115;28;20208;-65
2023/05/08 06:59:00;;;;;;;5.57;4.45;;;;;;;33.63;24.16;95196.72;4983418;28;20743;-68
2023/05/08 07:01:27;;;;;;;7.22;4.97;;;;;;;32.58;25.25;95204.25;4983207;28;20314;-65
2023/05/08 07:03:55;;;;;;;12.73;5.05;;;;;;;31.10;26.60;95208.31;4984856;28;22467;-65
2023/05/08 07:06:22;;;;;;;6.57;5.05;;;;;;;29.97;27.87;95206.88;4983596;28;20290;-66
2023/05/08 07:08:50;;;;;;;5.03;4.55;;;;;;;29.29;29.69;95219.47;4984626;28;20326;-68
2023/05/08 07:11:16;;;;;;;5.03;4.47;;;;;;;28.67;31.09;95217.19;4982607;28;20204;-64
2023/05/08 07:13:44;;;;;;;6.78;4.93;;;;;;;28.35;31.50;95217.84;4984095;28;21128;-63
2023/05/08 07:16:11;;;;;;;5.40;4.40;;;;;;;28.22;31.87;95216.63;4983790;28;20214;-65
2023/05/08 07:18:38;;;;;;;7.55;4.45;;;;;;;28.23;32.02;95219.09;4983239;28;20265;-67
2023/05/08 07:21:06;;;;;;;4.53;4.10;;;;;;;28.42;31.76;95205.81;4981842;28;20713;-68
2023/05/08 07:23:33;;;;;;;4.78;4.43;;;;;;;28.28;31.61;95214.22;4982302;28;20207;-67
2023/05/08 07:26:00;;;;;;;7.43;4.47;;;;;;;27.87;31.96;95207.09;4981047;28;20654;-65
2023/05/08 07:28:26;;;;;;;5.68;5.18;;;;;;;27.41;32.42;95207.22;4983568;28;20704;-66
2023/05/08 07:30:53;;;;;;;4.32;4.03;;;;;;;27.05;33.48;95213.41;4984034;28;20684;-67
2023/05/08 07:33:20;;;;;;;9.98;4.30;;;;;;;26.97;33.87;95211.56;4982660;28;20778;-67
2023/05/08 07:35:46;;;;;;;12.60;4.32;;;;;;;27.45;32.95;95212.97;4983948;28;20298;-69
2023/05/08 07:38:14;;;;;;;6.78;4.30;;;;;;;27.86;32.41;95211.50;4982588;28;20283;-65
2023/05/08 07:40:41;;;;;;;5.13;4.72;;;;;;;28.72;31.28;95209.66;4981982;28;20318;-64
2023/05/08 07:43:08;;;;;;;6.55;4.25;;;;;;;29.33;30.39;95207.69;4982024;28;20314;-64
2023/05/08 07:45:35;;;;;;;4.88;4.40;;;;;;;29.71;29.53;95207.06;4983411;28;20701;-66
2023/05/08 07:48:02;;;;;;;4.75;3.92;;;;;;;30.20;28.81;95212.25;4982422;28;20298;-67
2023/05/08 07:50:29;;;;;;;5.55;3.67;;;;;;;31.05;27.61;95212.44;4981884;28;20250;-66
2023/05/08 07:52:55;;;;;;;6.60;3.65;;;;;;;33.24;25.02;95207.66;4984712;28;20281;-66
2023/05/08 07:55:23;;;;;;;6.60;3.75;;;;;;;35.79;22.45;95200.63;4983209;28;20303;-65
2023/05/08 07:57:50;;;;;;;4.25;3.90;;;;;;;37.14;20.65;95207.81;4981053;28;20780;-66
2023/05/08 08:00:18;;;;;;;7.45;3.88;;;;;;;36.93;20.91;95191.44;4983650;28;20302;-68
2023/05/08 08:02:45;;;;;;;6.03;5.57;;;;;;;36.07;21.88;95207.53;4981879;28;20301;-64
2023/05/08 08:05:12;;;;;;;12.68;9.25;;;;;;;35.44;22.84;95207.06;4981518;28;20577;-65
2023/05/08 08:07:39;;;;;;;13.40;8.77;;;;;;;36.55;21.50;95204.59;4980955;28;23457;-67
2023/05/08 08:10:07;;;;;;;7.72;7.13;;;;;;;37.44;20.39;95201.97;4983990;28;20674;-67
2023/05/08 08:12:35;;;;;;;8.80;5.30;;;;;;;38.14;19.88;95205.34;4982905;28;20448;-66
2023/05/08 08:15:02;;;;;;;5.75;5.15;;;;;;;38.14;19.98;95194.72;4981655;28;20665;-67
2023/05/08 08:17:28;;;;;;;9.20;5.82;;;;;;;38.55;19.71;95190.63;4981609;28;20210;-68
2023/05/08 08:19:55;;;;;;;11.75;10.38;;;;;;;40.04;18.60;95197.84;4981831;28;20231;-66
2023/05/08 08:22:22;;;;;;;7.03;4.43;;;;;;;38.74;19.22;95193.09;4981378;28;20200;-68
2023/05/08 08:24:49;;;;;;;5.72;4.18;;;;;;;36.82;21.28;95200.88;4982082;28;20349;-66
2023/05/08 08:27:16;;;;;;;7.20;6.65;;;;;;;35.70;22.13;95203.63;4980882;28;20200;-67
2023/05/08 08:29:44;;;;;;;13.00;8.32;;;;;;;34.58;23.34;95200.66;4981506;28;20350;-66
2023/05/08 08:32:10;;;;;;;9.77;8.98;;;;;;;33.59;24.73;95190.19;4982764;28;20215;-68
2023/05/08 08:34:37;;;;;;;5.93;5.40;;;;;;;32.75;25.66;95199.63;4986973;28;20211;-69
2023/05/08 08:37:05;;;;;;;7.45;4.75;;;;;;;31.83;27.02;95190.41;4985646;28;20294;-68
2023/05/08 08:39:33;;;;;;;4.47;4.10;;;;;;;31.25;27.95;95186.56;4986650;28;20289;-66
2023/05/08 08:41:59;;;;;;;4.85;3.72;;;;;;;30.73;28.70;95185.38;4986162;28;20417;-66
2023/05/08 08:44:26;;;;;;;10.18;9.02;;;;;;;30.29;29.54;95179.81;4985738;28;20207;-68
2023/05/08 08:46:57;;;;;;;7.57;6.05;;;;;;;29.80;30.25;95176.44;4988534;28;20214;-68
2023/05/08 08:49:29;;;;;;;4.88;3.90;;;;;;;28.96;31.43;95179.34;4986682;28;20718;-65
2023/05/08 08:52:00;;;;;;;6.18;3.47;;;;;;;28.21;33.18;95174.00;4984626;28;20223;-67
2023/05/08 08:54:30;;;;;;;14.40;4.25;;;;;;;28.10;33.64;95172.47;4985730;28;20211;-65
2023/05/08 08:57:00;;;;;;;4.57;4.15;;;;;;;28.06;34.62;95167.69;4988490;28;20610;-66
2023/05/08 08:59:28;;;;;;;3.97;3.67;;;;;;;28.03;34.14;95160.16;4986209;28;20230;-65
2023/05/08 09:02:01;;;;;;;4.70;4.10;;;;;;;27.76;34.76;95153.31;4987828;28;20227;-68
2023/05/08 09:04:28;;;;;;;5.45;4.20;;;;;;;27.40;35.23;95158.59;4984596;28;20227;-65
2023/05/08 09:06:57;;;;;;;4.05;3.67;;;;;;;26.88;36.58;95157.63;4985459;28;20214;-66
2023/05/08 09:09:24;;;;;;;4.82;4.43;;;;;;;26.48;37.68;95147.59;4985277;28;20289;-66
2023/05/08 09:11:52;;;;;;;9.50;8.63;;;;;;;26.14;38.85;95147.34;4978535;28;21485;-66
2023/05/08 09:14:19;;;;;;;10.23;7.10;;;;;;;25.86;40.11;95133.47;4984161;28;20298;-68
2023/05/08 09:16:45;;;;;;;8.25;6.28;;;;;;;25.02;40.81;95125.50;4981490;28;20207;-65
2023/05/08 09:19:15;;;;;;;4.97;4.47;;;;;;;24.24;42.46;95130.69;4982810;28;20819;-66
2023/05/08 09:21:42;;;;;;;9.68;5.57;;;;;;;23.69;43.60;95131.03;4981041;28;20208;-67
2023/05/08 09:24:12;;;;;;;9.93;6.43;;;;;;;23.48;44.64;95132.81;4980284;28;20203;-65
2023/05/08 09:26:40;;;;;;;9.15;5.03;;;;;;;23.55;46.29;95123.56;4977033;28;20994;-64
2023/05/08 09:29:12;;;;;;;9.77;4.85;;;;;;;23.74;44.73;95139.25;4981484;28;20859;-67
2023/05/08 09:31:48;;;;;;;11.25;6.35;;;;;;;24.19;44.21;95138.88;4980477;28;20203;-64
2023/05/08 09:34:26;;;;;;;7.72;6.70;;;;;;;24.81;42.96;95132.59;4979424;28;20295;-72
2023/05/08 09:36:52;;;;;;;9.65;6.72;;;;;;;25.09;42.64;95136.19;4980087;28;20244;-69
2023/05/08 09:39:23;;;;;;;7.10;6.40;;;;;;;25.11;41.96;95147.28;4984278;28;20298;-69
2023/05/08 09:42:00;;;;;;;6.97;6.05;;;;;;;24.96;42.42;95152.06;4988505;28;20206;-67
2023/05/08 09:44:26;;;;;;;11.27;5.72;;;;;;;25.02;41.79;95154.09;4984063;28;20732;-64
2023/05/08 09:47:10;;;;;;;6.03;5.60;;;;;;;25.00;42.24;95156.00;4986053;28;20287;-66
2023/05/08 09:49:39;;;;;;;5.32;4.82;;;;;;;25.15;41.95;95145.22;4983784;28;20227;-68
2023/05/08 09:52:06;;;;;;;11.88;5.45;;;;;;;25.28;41.64;95137.94;4984816;28;20212;-71
2023/05/08 09:54:33;;;;;;;14.98;8.65;;;;;;;25.52;40.99;95135.69;4981804;28;20334;-67
2023/05/08 09:57:00;;;;;;;14.43;8.32;;;;;;;25.85;41.10;95133.59;4979601;28;20318;-68
2023/05/08 09:59:28;;;;;;;8.73;7.22;;;;;;;26.25;40.92;95139.31;4985693;28;20752;-67
2023/05/08 10:01:55;;;;;;;9.45;8.35;;;;;;;26.64;39.44;95124.31;4983791;28;20735;-66
2023/05/08 10:04:32;;;;;;;10.85;8.57;;;;;;;27.08;38.89;95134.84;4986415;28;20291;-68
2023/05/08 10:07:00;;;;;;;10.98;7.45;;;;;;;27.32;38.26;95135.03;4983091;28;20820;-71
2023/05/08 10:09:27;;;;;;;11.05;8.35;;;;;;;27.50;37.72;95131.56;4984583;28;20238;-71
2023/05/08 10:11:54;;;;;;;11.02;6.55;;;;;;;27.72;37.50;95126.69;4981696;28;20239;-69
2023/05/08 10:14:22;;;;;;;10.00;8.50;;;;;;;27.82;37.39;95128.38;4982445;28;20211;-67
2023/05/08 10:16:50;;;;;;;9.02;8.23;;;;;;;27.82;37.47;95126.59;4982691;28;20753;-68
2023/05/08 10:19:18;;;;;;;9.32;6.95;;;;;;;27.72;37.41;95131.91;4981222;28;20656;-70
2023/05/08 10:21:47;;;;;;;9.90;6.80;;;;;;;27.38;37.97;95131.03;4982374;28;20278;-70
2023/05/08 10:24:17;;;;;;;6.35;5.85;;;;;;;26.90;38.96;95124.41;4982418;28;20341;-66
2023/05/08 10:26:52;;;;;;;5.97;5.47;;;;;;;26.66;39.42;95114.56;4985750;28;20211;-68
2023/05/08 10:29:24;;;;;;;8.57;5.53;;;;;;;26.53;39.83;95121.09;4982412;28;20219;-69
2023/05/08 10:31:56;;;;;;;6.93;5.03;;;;;;;26.41;40.20;95117.88;4981413;28;21086;-70
2023/05/08 10:34:26;;;;;;;5.25;4.57;;;;;;;26.59;40.12;95110.91;4985330;28;20200;-66
2023/05/08 10:36:54;;;;;;;5.47;4.35;;;;;;;26.91;39.50;95106.97;4984393;28;21955;-67
2023/05/08 10:39:23;;;;;;;10.70;5.82;;;;;;;27.16;39.32;95113.25;4983130;28;20231;-65
2023/05/08 10:41:50;;;;;;;6.82;5.20;;;;;;;27.12;39.36;95109.28;4981143;28;20394;-64
2023/05/08 10:44:17;;;;;;;6.57;5.53;;;;;;;27.07;39.20;95110.56;4981258;28;20294;-67
2023/05/08 10:46:52;;;;;;;6.35;5.72;;;;;;;26.67;39.86;95103.16;4985081;28;20238;-69
2023/05/08 10:49:28;;;;;;;6.03;5.32;;;;;;;26.69;39.92;95108.22;4984376;28;20314;-69
2023/05/08 10:52:07;;;;;;;7.25;4.93;;;;;;;26.74;39.98;95093.75;4985097;28;20235;-71
2023/05/08 10:54:48;;;;;;;10.95;5.80;;;;;;;26.59;40.00;95100.47;4982001;28;20354;-66
2023/05/08 10:57:15;;;;;;;6.30;4.88;;;;;;;26.67;40.24;95091.91;4983568;28;20210;-67
2023/05/08 10:59:45;;;;;;;6.05;4.40;;;;;;;26.91;39.82;95084.31;4983250;28;20228;-67
2023/05/08 11:02:12;;;;;;;6.22;5.68;;;;;;;27.09;39.41;95082.53;4983608;28;20242;-67
2023/05/08 11:04:39;;;;;;;7.05;4.97;;;;;;;27.08;39.12;95085.28;4982733;28;20706;-66
2023/05/08 11:07:05;;;;;;;7.80;5.28;;;;;;;26.89;39.22;95081.03;4984811;28;20210;-69
2023/05/08 11:09:47;;;;;;;6.53;5.28;;;;;;;26.72;40.06;95079.25;4983736;28;20345;-70
2023/05/08 11:12:21;;;;;;;6.32;5.07;;;;;;;26.66;40.17;95069.44;4985030;28;20594;-66
2023/05/08 11:15:03;;;;;;;4.80;4.50;;;;;;;26.56;40.11;95064.28;4984333;28;20298;-67
2023/05/08 11:17:30;;;;;;;6.43;4.90;;;;;;;26.43;40.61;95059.44;4983944;28;20292;-68
2023/05/08 11:19:59;;;;;;;5.13;4.72;;;;;;;26.20;40.14;95058.19;4982652;28;20235;-66
2023/05/08 11:22:31;;;;;;;4.75;4.35;;;;;;;26.00;39.89;95056.63;4982213;28;20263;-65
2023/05/08 11:25:07;;;;;;;5.38;4.47;;;;;;;25.63;41.27;95057.50;4983877;28;20263;-66
2023/05/08 11:27:56;;;;;;;5.93;4.70;;;;;;;25.32;40.85;95035.25;4983708;28;20281;-65
2023/05/08 11:30:40;;;;;;;5.95;3.90;;;;;;;25.59;41.45;95045.72;4982705;28;20227;-67
2023/05/08 11:33:30;;;;;;;8.48;4.60;;;;;;;25.56;41.19;95038.19;4982829;28;20212;-65
2023/05/08 11:35:58;;;;;;;4.50;4.10;;;;;;;25.65;40.28;95042.56;4983493;28;20207;-66
2023/05/08 11:38:27;;;;;;;4.70;4.30;;;;;;;25.64;41.48;95038.31;4982274;28;20238;-67
2023/05/08 11:41:03;;;;;;;5.00;3.92;;;;;;;25.62;40.72;95029.00;4981318;28;20307;-63